Time;durP1;ratioP1;P1;durP2;ratioP2;P2;SDS_P1;SDS_P2;PMS_P1;PMS_P2;Temp;Humidity;BMP_temperature;BMP_pressure;BME280_temperature;BME280_humidity;BME280_pressure;Samples;Min_cycle;Max_cycle;Signal;HPM_P1;HPM_P2
2024/02/14 00:02:18;;;;;;;7.40;3.63;;;10.10;99.90;;;;;;5032540;28;20786;-77
2024/02/14 00:04:43;;;;;;;6.30;3.80;;;10.10;99.90;;;;;;5031619;28;20032;-78
2024/02/14 00:07:09;;;;;;;4.93;3.45;;;10.20;99.90;;;;;;5018862;28;20034;-77
2024/02/14 00:09:35;;;;;;;7.82;4.30;;;10.20;99.90;;;;;;5018327;28;20087;-77
2024/02/14 00:12:01;;;;;;;8.00;4.30;;;10.30;99.90;;;;;;5025362;28;20044;-77
2024/02/14 00:14:27;;;;;;;4.85;4.05;;;10.30;99.90;;;;;;5032095;28;20014;-77
2024/02/14 00:16:52;;;;;;;4.15;3.75;;;10.20;99.90;;;;;;5032332;28;20083;-76
2024/02/14 00:19:18;;;;;;;8.52;4.05;;;10.20;99.90;;;;;;5030631;28;20021;-75
2024/02/14 00:21:44;;;;;;;5.60;3.90;;;10.20;99.90;;;;;;5031789;28;20537;-78
2024/02/14 00:24:09;;;;;;;7.47;3.92;;;10.20;99.90;;;;;;5030790;28;20032;-74
2024/02/14 00:26:36;;;;;;;6.45;3.88;;;10.20;99.90;;;;;;5031675;28;20056;-75
2024/02/14 00:29:02;;;;;;;6.50;3.47;;;10.20;99.90;;;;;;5031637;28;20036;-77
2024/02/14 00:31:28;;;;;;;6.30;3.90;;;10.30;99.90;;;;;;5032023;28;20034;-76
2024/02/14 00:33:53;;;;;;;5.15;3.97;;;10.30;99.90;;;;;;5031775;28;20036;-75
2024/02/14 00:36:19;;;;;;;6.07;4.20;;;10.40;99.90;;;;;;5031748;28;20036;-77
2024/02/14 00:38:45;;;;;;;6.32;3.95;;;10.20;99.90;;;;;;5031003;28;20504;-76
2024/02/14 00:41:11;;;;;;;4.00;3.60;;;10.30;99.90;;;;;;5031959;28;20087;-75
2024/02/14 00:43:37;;;;;;;5.45;4.05;;;10.30;99.90;;;;;;5031213;28;20363;-76
2024/02/14 00:46:02;;;;;;;5.78;4.30;;;10.20;99.90;;;;;;5032019;28;20022;-75
2024/02/14 00:48:28;;;;;;;8.77;4.22;;;10.30;99.90;;;;;;5030267;28;20026;-76
2024/02/14 00:50:54;;;;;;;6.82;4.50;;;10.40;99.90;;;;;;5031587;28;20430;-76
2024/02/14 00:53:20;;;;;;;5.65;4.03;;;10.40;99.90;;;;;;5024944;28;20378;-76
2024/02/14 00:55:46;;;;;;;7.63;3.97;;;10.40;99.90;;;;;;5030444;28;20069;-74
2024/02/14 00:58:12;;;;;;;7.13;4.70;;;10.40;99.90;;;;;;5030873;28;20022;-76
2024/02/14 01:00:37;;;;;;;8.27;4.70;;;10.40;99.90;;;;;;5031641;28;20053;-76
2024/02/14 01:03:03;;;;;;;10.88;4.25;;;10.30;99.90;;;;;;5031678;28;20025;-77
2024/02/14 01:05:29;;;;;;;7.05;4.30;;;10.40;99.90;;;;;;5031735;28;20276;-76
2024/02/14 01:07:55;;;;;;;12.90;5.40;;;10.40;99.90;;;;;;5031737;28;20021;-76
2024/02/14 01:10:21;;;;;;;6.53;4.53;;;10.40;99.90;;;;;;5031861;28;20510;-76
2024/02/14 01:12:46;;;;;;;6.43;3.75;;;10.40;99.90;;;;;;5030937;28;20549;-76
2024/02/14 01:15:12;;;;;;;4.97;3.97;;;10.50;99.90;;;;;;5030632;28;20120;-75
2024/02/14 01:17:38;;;;;;;6.95;4.22;;;10.50;99.90;;;;;;5031310;28;20044;-76
2024/02/14 01:20:08;;;;;;;8.52;4.50;;;10.50;99.90;;;;;;5018140;28;20030;-75
2024/02/14 01:22:35;;;;;;;7.15;4.68;;;10.50;99.90;;;;;;5029624;28;20104;-76
2024/02/14 01:25:01;;;;;;;6.75;4.13;;;10.50;99.90;;;;;;5031488;28;20057;-76
2024/02/14 01:27:28;;;;;;;5.10;3.72;;;10.60;99.90;;;;;;5030747;28;20041;-75
2024/02/14 01:29:55;;;;;;;4.60;3.92;;;10.60;99.90;;;;;;5032032;28;20057;-75
2024/02/14 01:32:21;;;;;;;6.10;3.70;;;10.60;99.90;;;;;;5031282;28;20029;-74
2024/02/14 01:34:46;;;;;;;7.20;3.80;;;10.60;99.90;;;;;;5032766;28;20017;-75
2024/02/14 01:37:12;;;;;;;5.35;3.55;;;10.60;99.90;;;;;;5034179;28;20033;-76
2024/02/14 01:39:37;;;;;;;4.60;3.60;;;10.60;99.90;;;;;;5018421;28;20056;-74
2024/02/14 01:42:07;;;;;;;7.53;4.10;;;10.60;99.90;;;;;;5034146;28;20428;-73
2024/02/14 01:44:33;;;;;;;4.72;3.40;;;10.70;99.90;;;;;;5034914;28;20025;-76
2024/02/14 01:47:00;;;;;;;6.70;4.10;;;10.70;99.90;;;;;;5034245;28;20017;-75
2024/02/14 01:49:29;;;;;;;5.25;3.78;;;10.70;99.90;;;;;;5034857;28;20029;-75
2024/02/14 01:52:02;;;;;;;6.35;3.47;;;10.60;99.90;;;;;;5035103;28;20025;-76
2024/02/14 01:54:29;;;;;;;6.75;3.88;;;10.70;99.90;;;;;;5026109;28;20156;-73
2024/02/14 01:56:56;;;;;;;7.13;3.80;;;10.70;99.90;;;;;;5021360;28;20026;-77
2024/02/14 01:59:22;;;;;;;4.70;3.50;;;10.70;99.90;;;;;;5034087;28;20029;-76
2024/02/14 02:01:48;;;;;;;6.47;4.38;;;10.70;99.90;;;;;;5033652;28;20173;-75
2024/02/14 02:04:14;;;;;;;5.90;4.63;;;10.70;99.90;;;;;;5033275;28;20427;-75
2024/02/14 02:06:41;;;;;;;5.30;4.03;;;10.70;99.90;;;;;;5034297;28;20122;-74
2024/02/14 02:09:07;;;;;;;11.30;5.30;;;10.70;99.90;;;;;;5037625;28;20022;-74
2024/02/14 02:11:55;;;;;;;7.30;5.00;;;10.70;99.90;;;;;;5034747;28;20105;-74
2024/02/14 02:14:22;;;;;;;5.63;4.43;;;10.70;99.90;;;;;;5034438;28;20028;-76
2024/02/14 02:16:49;;;;;;;5.70;4.38;;;10.70;99.90;;;;;;5034563;28;20028;-76
2024/02/14 02:19:15;;;;;;;6.90;4.85;;;10.70;99.90;;;;;;5034355;28;20021;-77
2024/02/14 02:21:46;;;;;;;13.93;5.28;;;10.70;99.90;;;;;;5034236;28;20040;-76
2024/02/14 02:24:11;;;;;;;10.15;5.40;;;10.70;99.90;;;;;;5020946;28;20014;-76
2024/02/14 02:26:37;;;;;;;9.18;5.40;;;10.70;99.90;;;;;;5033029;28;20040;-77
2024/02/14 02:29:04;;;;;;;10.52;5.88;;;10.70;99.90;;;;;;5034020;28;20429;-76
2024/02/14 02:31:31;;;;;;;10.05;5.68;;;10.70;99.90;;;;;;5030183;28;20033;-77
2024/02/14 02:33:57;;;;;;;8.50;5.60;;;10.60;99.90;;;;;;5023569;28;20477;-76
2024/02/14 02:36:24;;;;;;;7.45;5.53;;;10.70;99.90;;;;;;5033957;28;20525;-76
2024/02/14 02:38:51;;;;;;;10.07;6.07;;;10.70;99.90;;;;;;5032747;28;20545;-77
2024/02/14 02:41:17;;;;;;;6.57;5.35;;;10.70;99.90;;;;;;5034454;28;20029;-77
2024/02/14 02:43:43;;;;;;;6.47;5.20;;;10.70;99.90;;;;;;5033990;28;20026;-77
2024/02/14 02:46:11;;;;;;;6.82;4.43;;;10.80;99.90;;;;;;5034040;28;20459;-76
2024/02/14 02:48:37;;;;;;;7.80;5.05;;;10.70;99.90;;;;;;5033864;28;20036;-77
2024/02/14 02:51:03;;;;;;;6.70;5.30;;;10.80;99.90;;;;;;5032344;28;20013;-76
2024/02/14 02:53:29;;;;;;;9.02;5.82;;;10.80;99.90;;;;;;5026853;28;20022;-76
2024/02/14 02:55:57;;;;;;;6.47;4.93;;;10.80;99.90;;;;;;5033818;28;20021;-76
2024/02/14 02:58:22;;;;;;;9.13;4.97;;;10.80;99.90;;;;;;5032818;28;20079;-76
2024/02/14 03:00:51;;;;;;;6.03;4.80;;;10.80;99.90;;;;;;5033158;28;20041;-76
2024/02/14 03:03:17;;;;;;;11.85;5.78;;;10.80;99.90;;;;;;5033350;28;20025;-76
2024/02/14 03:05:44;;;;;;;5.75;4.43;;;10.80;99.90;;;;;;5033410;28;20517;-75
2024/02/14 03:08:14;;;;;;;12.07;5.72;;;10.80;99.90;;;;;;5031587;28;20018;-77
2024/02/14 03:10:40;;;;;;;8.65;5.43;;;10.80;99.90;;;;;;5032938;28;20083;-76
2024/02/14 03:13:09;;;;;;;8.93;5.40;;;10.80;99.90;;;;;;5033021;28;20020;-74
2024/02/14 03:15:35;;;;;;;7.22;4.63;;;10.80;99.90;;;;;;5033030;28;20523;-74
2024/02/14 03:18:01;;;;;;;6.57;4.75;;;10.80;99.90;;;;;;5033539;28;20470;-73
2024/02/14 03:20:29;;;;;;;8.55;5.40;;;10.80;99.90;;;;;;5031855;28;20041;-77
2024/02/14 03:22:54;;;;;;;6.05;5.20;;;10.90;99.90;;;;;;5032983;28;20032;-74
2024/02/14 03:25:21;;;;;;;7.85;5.07;;;10.80;99.90;;;;;;5032509;28;20398;-74
2024/02/14 03:27:49;;;;;;;8.65;4.88;;;10.80;99.90;;;;;;5020550;28;20040;-77
2024/02/14 03:30:16;;;;;;;13.05;5.88;;;10.90;99.90;;;;;;5015749;28;20049;-74
2024/02/14 03:32:45;;;;;;;6.88;5.20;;;10.90;99.90;;;;;;5032136;28;20028;-75
2024/02/14 03:35:14;;;;;;;6.95;4.90;;;10.90;99.90;;;;;;5032951;28;20036;-74
2024/02/14 03:37:41;;;;;;;6.40;5.20;;;10.90;99.90;;;;;;5024234;28;20124;-74
2024/02/14 03:40:08;;;;;;;8.40;5.00;;;10.90;99.90;;;;;;5028562;28;20047;-74
2024/02/14 03:42:39;;;;;;;6.88;4.82;;;10.90;99.90;;;;;;5031555;28;20021;-72
2024/02/14 03:45:08;;;;;;;7.47;4.22;;;10.90;99.90;;;;;;5031633;28;20095;-76
2024/02/14 03:47:35;;;;;;;7.47;4.63;;;10.90;99.90;;;;;;5033090;28;20099;-73
2024/02/14 03:50:04;;;;;;;6.35;4.75;;;10.90;99.90;;;;;;5032951;28;20025;-74
2024/02/14 03:52:32;;;;;;;9.77;5.38;;;10.90;99.90;;;;;;5032635;28;20754;-73
2024/02/14 03:54:59;;;;;;;9.75;4.95;;;11.00;99.90;;;;;;5032430;28;20104;-74
2024/02/14 03:57:25;;;;;;;7.22;5.00;;;11.00;99.90;;;;;;5031370;28;20021;-74
2024/02/14 03:59:52;;;;;;;8.85;4.47;;;11.00;99.90;;;;;;5031187;28;20037;-75
2024/02/14 04:02:18;;;;;;;11.30;4.97;;;10.90;99.90;;;;;;5032651;28;20060;-75
2024/02/14 04:04:46;;;;;;;8.55;4.90;;;11.00;99.90;;;;;;5032128;28;20014;-74
2024/02/14 04:07:12;;;;;;;7.18;5.13;;;10.90;99.90;;;;;;5032299;28;20493;-72
2024/02/14 04:09:38;;;;;;;6.28;4.97;;;10.90;99.90;;;;;;5032497;28;20022;-74
2024/02/14 04:12:05;;;;;;;6.35;4.55;;;11.00;99.90;;;;;;5032630;28;20034;-73
2024/02/14 04:14:30;;;;;;;9.20;5.15;;;11.00;99.90;;;;;;5032309;28;20162;-75
2024/02/14 04:16:56;;;;;;;7.97;5.57;;;11.00;99.90;;;;;;5031274;28;20965;-75
2024/02/14 04:19:22;;;;;;;8.35;5.25;;;11.00;99.90;;;;;;5031848;28;20470;-75
2024/02/14 04:21:48;;;;;;;6.55;5.00;;;11.00;99.90;;;;;;5032068;28;20045;-73
2024/02/14 04:24:14;;;;;;;7.70;5.55;;;11.10;99.90;;;;;;5032387;28;20005;-75
2024/02/14 04:26:40;;;;;;;7.65;5.53;;;11.00;99.90;;;;;;5018365;28;20038;-75
2024/02/14 04:29:05;;;;;;;8.68;6.10;;;11.10;99.90;;;;;;5017983;28;20032;-75
2024/02/14 04:31:31;;;;;;;11.65;6.78;;;11.00;99.90;;;;;;5032476;28;20037;-75
2024/02/14 04:33:57;;;;;;;11.23;7.85;;;11.00;99.90;;;;;;5032107;28;20025;-76
2024/02/14 04:36:23;;;;;;;10.80;6.90;;;11.00;99.90;;;;;;5032074;28;20021;-75
2024/02/14 04:38:49;;;;;;;12.02;8.05;;;11.00;99.90;;;;;;5031732;28;20052;-73
2024/02/14 04:41:15;;;;;;;13.13;7.22;;;10.90;99.90;;;;;;5032187;28;20033;-74
2024/02/14 04:43:41;;;;;;;10.27;8.18;;;11.00;99.90;;;;;;5030958;28;20029;-76
2024/02/14 04:46:08;;;;;;;14.48;7.70;;;10.90;99.90;;;;;;5032240;28;20029;-74
2024/02/14 04:48:37;;;;;;;11.38;8.15;;;11.00;99.90;;;;;;5031158;28;20048;-74
2024/02/14 04:51:04;;;;;;;11.95;7.90;;;11.00;99.90;;;;;;5031802;28;20018;-75
2024/02/14 04:53:31;;;;;;;13.48;7.75;;;11.00;99.90;;;;;;5030996;28;20390;-76
2024/02/14 04:55:57;;;;;;;11.07;7.75;;;10.90;99.90;;;;;;5030637;28;20028;-73
2024/02/14 04:58:23;;;;;;;12.25;8.52;;;11.00;99.90;;;;;;5031949;28;20026;-72
2024/02/14 05:00:49;;;;;;;13.02;8.30;;;10.90;99.90;;;;;;5031660;28;20483;-75
2024/02/14 05:03:15;;;;;;;12.27;8.15;;;11.00;99.90;;;;;;5030802;28;20025;-76
2024/02/14 05:05:41;;;;;;;11.63;8.18;;;11.00;99.90;;;;;;5031811;28;20028;-76
2024/02/14 05:08:07;;;;;;;12.90;7.82;;;11.10;99.90;;;;;;5031793;28;20025;-76
2024/02/14 05:10:33;;;;;;;13.98;9.77;;;11.10;99.90;;;;;;5031555;28;20378;-76
2024/02/14 05:12:58;;;;;;;15.38;8.88;;;11.10;99.90;;;;;;5035760;28;20021;-74
2024/02/14 05:15:24;;;;;;;14.63;9.40;;;11.10;99.90;;;;;;5036076;28;20021;-76
2024/02/14 05:17:50;;;;;;;10.75;9.23;;;11.00;99.90;;;;;;5035444;28;20032;-76
2024/02/14 05:20:19;;;;;;;13.98;9.88;;;11.10;99.90;;;;;;5035706;28;20079;-73
2024/02/14 05:22:45;;;;;;;14.30;9.20;;;11.10;99.90;;;;;;5023042;28;20024;-73
2024/02/14 05:25:10;;;;;;;14.18;8.50;;;11.00;99.90;;;;;;5035459;28;20025;-73
2024/02/14 05:27:36;;;;;;;20.13;10.60;;;11.00;99.90;;;;;;5034373;28;20026;-76
2024/02/14 05:30:05;;;;;;;13.63;9.02;;;10.90;99.90;;;;;;5035932;28;20412;-75
2024/02/14 05:32:32;;;;;;;14.50;8.88;;;11.00;99.90;;;;;;5030062;28;20116;-75
2024/02/14 05:34:58;;;;;;;12.77;9.43;;;11.00;99.90;;;;;;5021596;28;20503;-74
2024/02/14 05:37:23;;;;;;;16.15;10.40;;;11.10;99.90;;;;;;5035441;28;20057;-75
2024/02/14 05:39:49;;;;;;;16.63;9.20;;;11.00;99.90;;;;;;5035281;28;20187;-76
2024/02/14 05:42:16;;;;;;;14.90;9.80;;;11.00;99.90;;;;;;5035176;28;20406;-74
2024/02/14 05:44:43;;;;;;;14.80;10.20;;;11.10;99.90;;;;;;5035300;28;20096;-72
2024/02/14 05:47:10;;;;;;;17.90;11.02;;;11.10;99.90;;;;;;5035215;28;20030;-75
2024/02/14 05:49:35;;;;;;;18.60;10.63;;;11.20;99.90;;;;;;5034562;28;20032;-76
2024/02/14 05:52:01;;;;;;;19.55;10.45;;;11.20;99.90;;;;;;5034862;28;20355;-75
2024/02/14 05:54:27;;;;;;;15.88;9.60;;;11.10;99.90;;;;;;5035131;28;20029;-75
2024/02/14 05:56:52;;;;;;;17.38;9.43;;;11.10;99.90;;;;;;5035209;28;20022;-75
2024/02/14 05:59:18;;;;;;;17.60;10.43;;;11.20;99.90;;;;;;5034553;28;20030;-73
2024/02/14 06:01:43;;;;;;;17.30;10.48;;;11.20;99.90;;;;;;5034395;28;20063;-75
2024/02/14 06:04:09;;;;;;;16.25;10.13;;;11.30;99.90;;;;;;5033321;28;20111;-75
2024/02/14 06:06:35;;;;;;;15.63;10.38;;;11.20;99.90;;;;;;5034150;28;20022;-73
2024/02/14 06:09:00;;;;;;;16.58;10.75;;;11.20;99.90;;;;;;5033429;28;20386;-74
2024/02/14 06:11:26;;;;;;;15.90;10.70;;;11.20;99.90;;;;;;5033324;28;20501;-75
2024/02/14 06:13:52;;;;;;;14.57;10.50;;;11.20;99.90;;;;;;5034500;28;20030;-74
2024/02/14 06:16:17;;;;;;;16.85;9.90;;;11.20;99.90;;;;;;5021742;28;20048;-76
2024/02/14 06:18:43;;;;;;;16.55;10.30;;;11.30;99.90;;;;;;5034611;28;20502;-73
2024/02/14 06:21:09;;;;;;;15.88;11.90;;;11.30;99.90;;;;;;5033857;28;20029;-75
2024/02/14 06:23:36;;;;;;;16.65;10.90;;;11.30;99.90;;;;;;5032829;28;20028;-74
2024/02/14 06:26:04;;;;;;;18.38;11.20;;;11.30;99.90;;;;;;5034470;28;20022;-75
2024/02/14 06:28:29;;;;;;;18.95;10.75;;;11.30;99.90;;;;;;5033890;28;20032;-76
2024/02/14 06:30:55;;;;;;;16.83;10.70;;;11.30;99.90;;;;;;5034242;28;20033;-75
2024/02/14 06:33:20;;;;;;;17.45;10.57;;;11.30;99.90;;;;;;5034199;28;20502;-76
2024/02/14 06:35:46;;;;;;;18.40;11.05;;;11.30;99.90;;;;;;5034482;28;20487;-73
2024/02/14 06:38:12;;;;;;;19.60;11.40;;;11.40;99.90;;;;;;5034115;28;20056;-75
2024/02/14 06:40:37;;;;;;;18.80;10.98;;;11.40;99.90;;;;;;5032871;28;20042;-73
2024/02/14 06:43:06;;;;;;;14.38;9.98;;;11.40;99.90;;;;;;5021379;28;20018;-73
2024/02/14 06:45:32;;;;;;;14.95;10.35;;;11.40;99.90;;;;;;5029265;28;20037;-73
2024/02/14 06:47:58;;;;;;;19.30;10.57;;;11.40;99.90;;;;;;5034081;28;20020;-72
2024/02/14 06:50:25;;;;;;;20.67;11.25;;;11.40;99.90;;;;;;5029193;28;20017;-74
2024/02/14 06:52:51;;;;;;;25.02;11.80;;;11.30;99.90;;;;;;5043272;28;20458;-74
2024/02/14 06:55:17;;;;;;;22.63;13.05;;;11.40;99.90;;;;;;5036403;28;20516;-74
2024/02/14 06:57:42;;;;;;;22.85;13.48;;;11.40;99.90;;;;;;5033971;28;20025;-75
2024/02/14 07:00:08;;;;;;;20.13;11.27;;;11.30;99.90;;;;;;5042178;28;20142;-75
2024/02/14 07:02:34;;;;;;;20.65;12.65;;;11.40;99.90;;;;;;5033760;28;20038;-75
2024/02/14 07:05:01;;;;;;;24.00;12.70;;;11.30;99.90;;;;;;5033824;28;20038;-74
2024/02/14 07:07:27;;;;;;;18.50;12.18;;;11.40;99.90;;;;;;5038747;28;20017;-75
2024/02/14 07:09:53;;;;;;;22.95;12.20;;;11.40;99.90;;;;;;5033937;28;20463;-75
2024/02/14 07:12:19;;;;;;;21.80;12.90;;;11.40;99.90;;;;;;5033353;28;20021;-75
2024/02/14 07:14:46;;;;;;;23.30;13.63;;;11.40;99.90;;;;;;5032015;28;20075;-76
2024/02/14 07:17:11;;;;;;;25.30;12.63;;;11.40;99.90;;;;;;5033291;28;20053;-76
2024/02/14 07:19:38;;;;;;;21.58;12.57;;;11.40;99.90;;;;;;5033356;28;20451;-76
2024/02/14 07:22:04;;;;;;;27.88;13.88;;;11.40;99.90;;;;;;5033015;28;20063;-76
2024/02/14 07:24:29;;;;;;;22.48;13.55;;;11.50;99.90;;;;;;5029940;28;20065;-76
2024/02/14 07:26:56;;;;;;;23.40;13.15;;;11.50;99.90;;;;;;5030942;28;20036;-76
2024/02/14 07:29:22;;;;;;;24.77;13.10;;;11.50;99.90;;;;;;5031786;28;20025;-76
2024/02/14 07:31:48;;;;;;;17.10;11.35;;;11.50;99.90;;;;;;5031203;28;20026;-75
2024/02/14 07:34:14;;;;;;;19.00;12.50;;;11.50;99.90;;;;;;5032690;28;20021;-74
2024/02/14 07:36:41;;;;;;;18.20;12.80;;;11.50;99.90;;;;;;5033061;28;20570;-76
2024/02/14 07:39:07;;;;;;;20.88;12.88;;;11.40;99.90;;;;;;5033320;28;20025;-75
2024/02/14 07:41:32;;;;;;;18.15;11.82;;;11.50;99.90;;;;;;5032950;28;20040;-75
2024/02/14 07:43:58;;;;;;;17.92;12.25;;;11.60;99.90;;;;;;5031754;28;20031;-75
2024/02/14 07:46:26;;;;;;;21.48;11.95;;;11.60;99.90;;;;;;5032881;28;20028;-76
2024/02/14 07:48:51;;;;;;;20.88;11.40;;;11.60;99.90;;;;;;5031865;28;20022;-75
2024/02/14 07:51:19;;;;;;;23.15;11.80;;;11.60;99.90;;;;;;5031194;28;20064;-76
2024/02/14 07:53:45;;;;;;;18.30;10.65;;;11.70;99.90;;;;;;5033197;28;20021;-75
2024/02/14 07:56:10;;;;;;;21.38;11.43;;;11.70;99.90;;;;;;5032318;28;20064;-76
2024/02/14 07:58:36;;;;;;;17.75;11.13;;;11.70;99.90;;;;;;5032749;28;20147;-75
2024/02/14 08:01:03;;;;;;;19.17;11.70;;;11.80;99.90;;;;;;5032562;28;20498;-75
2024/02/14 08:03:29;;;;;;;27.15;11.65;;;11.70;99.90;;;;;;5032589;28;20455;-81
2024/02/14 08:05:55;;;;;;;18.92;9.35;;;11.70;99.90;;;;;;5032634;28;20040;-75
2024/02/14 08:08:21;;;;;;;21.02;11.25;;;11.70;99.90;;;;;;5029246;28;20025;-75
2024/02/14 08:10:50;;;;;;;23.20;9.75;;;11.80;99.90;;;;;;5027609;28;20076;-75
2024/02/14 08:13:43;;;;;;;26.33;11.88;;;11.80;99.90;;;;;;5015293;28;20021;-75
2024/02/14 08:16:09;;;;;;;15.65;10.00;;;11.80;99.90;;;;;;5020119;28;20113;-74
2024/02/14 08:18:35;;;;;;;14.23;9.23;;;11.80;99.90;;;;;;5030815;28;20068;-75
2024/02/14 08:21:04;;;;;;;17.50;10.25;;;11.90;99.90;;;;;;5023312;28;20077;-74
2024/02/14 08:23:31;;;;;;;15.32;9.10;;;11.80;99.90;;;;;;5016725;28;20037;-75
2024/02/14 08:25:56;;;;;;;15.07;8.98;;;11.80;99.90;;;;;;5040051;28;20148;-74
2024/02/14 08:28:22;;;;;;;18.40;10.18;;;11.90;99.90;;;;;;5032192;28;20041;-74
2024/02/14 08:30:48;;;;;;;18.02;9.90;;;11.90;99.90;;;;;;5030286;28;20526;-75
2024/02/14 08:33:13;;;;;;;16.25;9.63;;;11.90;99.90;;;;;;5031485;28;20022;-74
2024/02/14 08:35:39;;;;;;;15.57;10.43;;;11.90;99.90;;;;;;5031506;28;20359;-74
2024/02/14 08:38:06;;;;;;;20.35;9.77;;;11.90;99.90;;;;;;5031791;28;20045;-75
2024/02/14 08:40:32;;;;;;;16.67;9.32;;;12.00;99.90;;;;;;5029966;28;20115;-75
2024/02/14 08:42:59;;;;;;;16.83;10.27;;;12.10;99.90;;;;;;5030133;28;20483;-75
2024/02/14 08:45:25;;;;;;;12.70;8.55;;;12.00;99.90;;;;;;5031851;28;20024;-73
2024/02/14 08:47:51;;;;;;;13.52;8.73;;;12.10;99.90;;;;;;5030890;28;20026;-74
2024/02/14 08:50:17;;;;;;;17.38;8.50;;;12.00;99.90;;;;;;5030597;28;20032;-74
2024/02/14 08:52:43;;;;;;;15.55;8.57;;;12.10;99.90;;;;;;5020173;28;20018;-74
2024/02/14 08:55:14;;;;;;;9.57;6.70;;;12.10;99.90;;;;;;5030390;28;20104;-75
2024/02/14 08:57:41;;;;;;;12.45;8.90;;;12.10;99.90;;;;;;5031842;28;20029;-74
2024/02/14 09:00:07;;;;;;;13.30;7.43;;;12.20;99.90;;;;;;5031441;28;21622;-74
2024/02/14 09:02:34;;;;;;;15.30;8.82;;;12.30;99.90;;;;;;5030419;28;20085;-73
2024/02/14 09:05:01;;;;;;;12.27;7.50;;;12.20;99.90;;;;;;5028385;28;20053;-74
2024/02/14 09:07:27;;;;;;;12.93;8.13;;;12.30;99.90;;;;;;5030214;28;20036;-73
2024/02/14 09:09:52;;;;;;;14.10;8.18;;;12.20;99.90;;;;;;5026009;28;20017;-72
2024/02/14 09:12:18;;;;;;;12.52;8.00;;;12.20;99.90;;;;;;5029548;28;20033;-72
2024/02/14 09:14:44;;;;;;;14.52;7.60;;;12.20;99.90;;;;;;5031410;28;20097;-72
2024/02/14 09:17:10;;;;;;;15.23;8.73;;;12.30;99.90;;;;;;5030835;28;20606;-72
2024/02/14 09:19:49;;;;;;;;;;;;;;;;;;;;;
2024/02/14 09:22:21;;;;;;;14.30;8.82;;;12.30;99.90;;;;;;5031165;28;20044;-74
2024/02/14 09:24:50;;;;;;;14.95;7.85;;;12.30;99.90;;;;;;5030020;28;20033;-74
2024/02/14 09:27:16;;;;;;;14.95;9.02;;;12.30;99.90;;;;;;5027924;28;20141;-75
2024/02/14 09:29:42;;;;;;;13.38;8.90;;;12.40;99.90;;;;;;5014550;28;20526;-75
2024/02/14 09:32:07;;;;;;;18.50;9.82;;;12.50;99.90;;;;;;5024653;28;20030;-75
2024/02/14 09:34:34;;;;;;;16.27;9.30;;;12.50;99.90;;;;;;5030758;28;20064;-74
2024/02/14 09:37:00;;;;;;;17.52;9.27;;;12.50;99.90;;;;;;5031094;28;20033;-73
2024/02/14 09:39:25;;;;;;;11.85;8.07;;;12.60;99.90;;;;;;5030667;28;20083;-74
2024/02/14 09:42:02;;;;;;;16.27;9.05;;;12.60;99.90;;;;;;5031507;28;20529;-74
2024/02/14 09:44:32;;;;;;;14.15;8.82;;;12.60;99.90;;;;;;5030142;28;20463;-74
2024/02/14 09:47:00;;;;;;;12.65;7.47;;;12.60;99.90;;;;;;5030570;28;20030;-73
2024/02/14 09:49:33;;;;;;;15.13;8.00;;;12.60;99.90;;;;;;5024002;28;20075;-71
2024/02/14 09:52:05;;;;;;;15.50;7.28;;;12.60;99.90;;;;;;5007123;28;20040;-74
2024/02/14 09:54:34;;;;;;;13.00;7.95;;;12.60;99.90;;;;;;5029098;28;20094;-73
2024/02/14 09:57:02;;;;;;;18.10;8.57;;;12.60;99.90;;;;;;5033298;28;20402;-72
2024/02/14 09:59:29;;;;;;;10.05;8.00;;;12.60;99.90;;;;;;5022898;28;20037;-73
2024/02/14 10:01:55;;;;;;;12.98;8.23;;;12.60;99.90;;;;;;5035121;28;20038;-73
2024/02/14 10:04:22;;;;;;;14.82;8.88;;;12.60;99.90;;;;;;5031407;28;20040;-72
2024/02/14 10:06:49;;;;;;;12.48;8.68;;;12.70;99.90;;;;;;5029148;28;20018;-72
2024/02/14 10:09:22;;;;;;;12.38;8.68;;;12.60;99.90;;;;;;5027104;28;20155;-72
2024/02/14 10:11:48;;;;;;;16.55;10.07;;;12.60;99.90;;;;;;5033627;28;20075;-72
2024/02/14 10:14:14;;;;;;;15.40;8.93;;;12.60;99.90;;;;;;5030739;28;20449;-72
2024/02/14 10:16:41;;;;;;;15.18;8.85;;;12.70;99.90;;;;;;5034174;28;20025;-72
2024/02/14 10:19:17;;;;;;;11.85;8.10;;;12.70;99.90;;;;;;5034234;28;20470;-72
2024/02/14 10:21:43;;;;;;;13.13;8.20;;;12.70;99.90;;;;;;5034317;28;20116;-71
2024/02/14 10:24:12;;;;;;;13.18;8.32;;;12.70;99.90;;;;;;5031660;28;20105;-72
2024/02/14 10:26:38;;;;;;;12.98;8.95;;;12.80;99.90;;;;;;5033807;28;20029;-73
2024/02/14 10:29:05;;;;;;;11.63;8.82;;;12.70;99.90;;;;;;5033873;28;20021;-73
2024/02/14 10:31:31;;;;;;;13.85;8.95;;;12.70;99.90;;;;;;5034290;28;20049;-73
2024/02/14 10:33:58;;;;;;;15.45;9.23;;;12.70;99.90;;;;;;5032673;28;20013;-73
2024/02/14 10:36:24;;;;;;;14.20;9.30;;;12.80;99.90;;;;;;5021325;28;20030;-73
2024/02/14 10:38:50;;;;;;;12.50;9.10;;;12.80;99.90;;;;;;5033415;28;20026;-73
2024/02/14 10:41:19;;;;;;;13.23;9.82;;;12.90;99.90;;;;;;5026845;28;20034;-72
2024/02/14 10:43:45;;;;;;;10.65;8.52;;;12.90;99.90;;;;;;5033671;28;20088;-72
2024/02/14 10:46:22;;;;;;;13.05;8.10;;;12.90;99.90;;;;;;5033990;28;20466;-75
2024/02/14 10:48:50;;;;;;;10.80;8.18;;;12.90;99.90;;;;;;5023529;28;20041;-74
2024/02/14 10:51:16;;;;;;;11.18;8.73;;;13.00;99.90;;;;;;5032810;28;20079;-75
2024/02/14 10:53:45;;;;;;;10.35;8.07;;;12.90;99.90;;;;;;5028990;28;20037;-74
2024/02/14 10:56:18;;;;;;;11.70;8.43;;;12.80;99.90;;;;;;5030444;28;20022;-75
2024/02/14 10:58:46;;;;;;;9.98;7.60;;;12.90;99.90;;;;;;5028330;28;20462;-75
2024/02/14 11:01:14;;;;;;;10.10;7.82;;;12.90;99.90;;;;;;5028578;28;20041;-74
2024/02/14 11:03:41;;;;;;;9.32;7.45;;;12.90;99.90;;;;;;5031387;28;20025;-73
2024/02/14 11:06:06;;;;;;;8.77;7.25;;;12.90;99.90;;;;;;5032714;28;20029;-73
2024/02/14 11:08:33;;;;;;;10.63;8.18;;;12.90;99.90;;;;;;5031020;28;20022;-73
2024/02/14 11:11:00;;;;;;;8.85;7.68;;;12.90;99.90;;;;;;5032616;28;20021;-74
2024/02/14 11:13:28;;;;;;;10.52;7.95;;;13.00;99.90;;;;;;5028530;28;20048;-73
2024/02/14 11:15:55;;;;;;;10.38;8.15;;;13.00;99.90;;;;;;5033271;28;20071;-74
2024/02/14 11:18:30;;;;;;;10.85;9.30;;;13.00;99.90;;;;;;5033009;28;20029;-74
2024/02/14 11:20:57;;;;;;;11.23;8.48;;;12.90;99.90;;;;;;5032523;28;20044;-75
2024/02/14 11:23:23;;;;;;;9.40;8.50;;;12.90;99.90;;;;;;5033711;28;20532;-75
2024/02/14 11:25:49;;;;;;;8.90;7.65;;;12.80;99.90;;;;;;5032649;28;20075;-75
2024/02/14 11:28:25;;;;;;;10.85;7.43;;;12.90;99.90;;;;;;5033261;28;20018;-74
2024/02/14 11:30:51;;;;;;;11.80;8.35;;;12.90;99.90;;;;;;5032791;28;20025;-74
2024/02/14 11:33:21;;;;;;;11.60;8.95;;;12.90;99.90;;;;;;5033334;28;20029;-74
2024/02/14 11:35:55;;;;;;;9.75;7.93;;;12.90;99.90;;;;;;5031244;28;20167;-76
2024/02/14 11:38:22;;;;;;;11.73;7.72;;;13.00;99.90;;;;;;5032825;28;20021;-74
2024/02/14 11:40:49;;;;;;;9.90;7.32;;;13.00;99.90;;;;;;5032651;28;20025;-74
2024/02/14 11:43:16;;;;;;;10.65;8.02;;;13.00;99.90;;;;;;5033382;28;20029;-74
2024/02/14 11:45:43;;;;;;;8.52;6.85;;;13.00;99.90;;;;;;5030409;28;20228;-74
2024/02/14 11:48:16;;;;;;;9.13;7.20;;;13.00;99.90;;;;;;5024340;28;20382;-74
2024/02/14 11:50:44;;;;;;;11.07;8.70;;;13.10;99.90;;;;;;5018960;28;20030;-74
2024/02/14 11:53:16;;;;;;;10.15;7.43;;;13.10;99.90;;;;;;5030855;28;20109;-75
2024/02/14 11:55:43;;;;;;;9.00;7.32;;;13.10;99.90;;;;;;5031691;28;20029;-74
2024/02/14 11:58:10;;;;;;;7.93;6.10;;;13.10;99.90;;;;;;5032203;28;20021;-74
2024/02/14 12:00:40;;;;;;;10.15;7.35;;;13.10;99.90;;;;;;5030333;28;20045;-75
2024/02/14 12:03:11;;;;;;;9.73;7.05;;;13.10;99.90;;;;;;5045521;28;20021;-74
2024/02/14 12:05:38;;;;;;;12.98;7.20;;;13.20;99.90;;;;;;5023814;28;20038;-74
2024/02/14 12:08:07;;;;;;;7.88;6.47;;;13.20;99.90;;;;;;5014366;28;20083;-74
2024/02/14 12:10:35;;;;;;;7.32;6.57;;;13.20;99.90;;;;;;5028876;28;20421;-74
2024/02/14 12:13:14;;;;;;;9.10;6.57;;;13.20;99.90;;;;;;5019111;28;20382;-74
2024/02/14 12:15:50;;;;;;;6.50;5.85;;;13.10;99.90;;;;;;5031689;28;20032;-74
2024/02/14 12:18:18;;;;;;;7.93;6.13;;;13.30;99.90;;;;;;5030745;28;20636;-74
2024/02/14 12:20:44;;;;;;;6.65;4.82;;;13.20;99.90;;;;;;5030198;28;20025;-79
2024/02/14 12:23:20;;;;;;;6.80;4.90;;;13.30;99.90;;;;;;5029977;28;20029;-74
2024/02/14 12:25:47;;;;;;;4.22;3.83;;;13.30;99.90;;;;;;5029830;28;20036;-73
2024/02/14 12:28:19;;;;;;;6.53;5.10;;;13.30;99.90;;;;;;5025321;28;20478;-74
2024/02/14 12:30:49;;;;;;;6.70;5.55;;;13.20;99.90;;;;;;5004365;28;20114;-74
2024/02/14 12:33:16;;;;;;;9.30;5.85;;;13.20;99.90;;;;;;5002067;28;20122;-74
2024/02/14 12:35:46;;;;;;;7.82;4.93;;;13.30;99.90;;;;;;5034001;28;20025;-74
2024/02/14 12:38:13;;;;;;;7.32;4.63;;;13.30;99.90;;;;;;5034674;28;20037;-74
2024/02/14 12:40:44;;;;;;;9.10;4.60;;;13.20;99.90;;;;;;5036068;28;20075;-74